Whittaker, Michigan
Current Conditions -  °F | °C
As of 4:53 AM on Wednesday 26 Nov 2014 (Local Time) from KYIP Reporting Station
Overcast Overcast  
Wind Chill: 32°   Ceiling: 2200
Heat Index: 32°   Visibility: 10mi
Dew Point: 20°   Wind: 3mph
Humidity: 61%   Direction: 360°N
Pressure: 30.19"   Gusts: NA
Location:  42.13°N, 83.6°W
Report Text: KYIP 260953Z AUTO 36003KT 10SM OVC022 00/M07 A3019 RMK AO2 SLP228 T00001067 TSNO
Loading
Personal Weather Stations






























Interactive Weather Map New forecast layout! Learn more

10-Day Weather Forecast

Advertisements
Track Severe Weather on mobile